Airport View

Enter AWOS ICAO identifier for current METAR.

ex. KFNL

KVWU 191858Z AUTO 16006KT 10SM SCT075 23/11 A2984 RMK AO2

19 Jun 2019 19:31

Frequency: 124.175

Phone: 218-647-8415

Other Area AWOS: KBDE - KFOZ - KBJI - KINL

TAF KBJI 191737Z 1918/2018 12011KT P6SM SCT050 SCT250 FM192000 12011KT P6SM SCT060 BKN250 FM201000 12007KT P6SM BKN100 FM201500 13013KT P6SM BKN180